createdAt,value
2023-01-23T00:03:24.704Z,47.6
2023-01-23T00:09:17.113Z,48.3
2023-01-23T00:15:09.842Z,49.2
2023-01-23T00:20:59.789Z,52.1
2023-01-23T00:26:53.490Z,51.4
2023-01-23T00:32:43.451Z,52
2023-01-23T00:38:33.744Z,50.9
2023-01-23T00:44:24.409Z,48.2
2023-01-23T00:50:16.976Z,50.2
2023-01-23T00:56:08.896Z,57.3
2023-01-23T01:02:03.160Z,52.7
2023-01-23T01:07:56.762Z,52.1
2023-01-23T01:13:59.759Z,53.3
2023-01-23T01:19:48.691Z,54.2
2023-01-23T01:31:48.187Z,50.5
2023-01-23T01:37:40.172Z,53.1
2023-01-23T01:43:32.705Z,53.1
2023-01-23T01:55:33.447Z,54.1
2023-01-23T02:01:48.843Z,54.8
2023-01-23T02:08:03.285Z,54.3
2023-01-23T02:13:56.156Z,56.1
2023-01-23T02:19:58.955Z,54.2
2023-01-23T02:25:52.249Z,54.8
2023-01-23T02:31:44.690Z,53
2023-01-23T02:37:42.868Z,53.6
2023-01-23T02:43:34.381Z,52.6
2023-01-23T02:49:31.275Z,54.6
2023-01-23T02:55:28.337Z,53.6
2023-01-23T03:01:25.036Z,54.4
2023-01-23T03:07:15.935Z,56.7
2023-01-23T03:13:06.978Z,56.7
2023-01-23T03:19:06.510Z,55.5
2023-01-23T03:25:04.435Z,57.2
2023-01-23T03:31:03.339Z,52.5
2023-01-23T03:36:55.663Z,52
2023-01-23T03:42:48.726Z,53.7
2023-01-23T03:48:40.911Z,52
2023-01-23T03:54:30.957Z,51.1
2023-01-23T04:00:25.250Z,52.3
2023-01-23T04:06:21.575Z,54.1
2023-01-23T04:12:13.812Z,54.2
2023-01-23T04:18:06.945Z,53.8
2023-01-23T04:24:00.675Z,52.1
2023-01-23T04:29:52.274Z,51.3
2023-01-23T04:35:51.669Z,52.4
2023-01-23T04:41:45.208Z,52.1
2023-01-23T04:47:36.922Z,51.3
2023-01-23T04:53:28.222Z,55.7
2023-01-23T04:59:18.594Z,55.2
2023-01-23T05:05:09.968Z,52.8
2023-01-23T05:11:04.417Z,52.5
2023-01-23T05:16:58.778Z,51.8
2023-01-23T05:22:49.195Z,52.3
2023-01-23T05:28:40.586Z,55.4
2023-01-23T05:34:29.672Z,51.3
2023-01-23T05:40:27.348Z,53.1
2023-01-23T05:46:21.622Z,53
2023-01-23T05:52:13.842Z,54.4
2023-01-23T05:58:03.974Z,53.9
2023-01-23T06:03:53.158Z,54.4
2023-01-23T06:09:47.009Z,52.6
2023-01-23T06:15:41.181Z,52.5
2023-01-23T06:21:32.531Z,53.6
2023-01-23T06:27:23.310Z,49.8
2023-01-23T06:33:15.139Z,51.3
2023-01-23T06:39:04.599Z,47.7
2023-01-23T06:44:56.039Z,53
2023-01-23T06:50:47.343Z,51
2023-01-23T06:56:42.742Z,51.3
2023-01-23T07:02:34.189Z,50.2
2023-01-23T07:08:31.853Z,50.6
2023-01-23T07:14:24.401Z,50.7
2023-01-23T07:20:17.519Z,60.1
2023-01-23T07:26:10.050Z,52.7
2023-01-23T07:32:01.218Z,52.7
2023-01-23T07:37:52.188Z,49.9
2023-01-23T07:43:49.515Z,46.8
2023-01-23T07:49:41.695Z,49.4
2023-01-23T07:55:37.329Z,48.1
2023-01-23T08:01:29.310Z,47.4
2023-01-23T08:07:20.130Z,48.2
2023-01-23T08:13:12.649Z,45.2
2023-01-23T08:19:29.101Z,45.4
2023-01-23T08:25:25.259Z,48.8
2023-01-23T08:31:17.631Z,45.4
2023-01-23T08:37:12.866Z,43.7
2023-01-23T08:43:03.733Z,40.6
2023-01-23T08:48:57.416Z,50.4
2023-01-23T08:54:48.704Z,41
2023-01-23T09:00:41.380Z,51.3
2023-01-23T09:06:35.893Z,48.9
2023-01-23T09:12:24.792Z,39.4
2023-01-23T09:18:21.669Z,37.4
2023-01-23T09:24:11.975Z,37.3
2023-01-23T09:30:01.945Z,36.6
2023-01-23T09:35:53.593Z,38.5
2023-01-23T09:41:47.529Z,37.3
2023-01-23T09:47:36.048Z,37
2023-01-23T09:53:39.818Z,35.2
2023-01-23T09:59:35.130Z,38.3
2023-01-23T10:05:38.373Z,33.1
2023-01-23T10:11:29.542Z,30
2023-01-23T10:17:19.802Z,25.3
2023-01-23T10:23:11.211Z,21.9
2023-01-23T10:29:00.862Z,18.5
2023-01-23T10:34:56.245Z,22.7
2023-01-23T10:40:48.652Z,17
2023-01-23T10:46:44.073Z,17.9
2023-01-23T10:52:35.761Z,18
2023-01-23T10:58:28.798Z,28.9
2023-01-23T11:04:19.987Z,16.7
2023-01-23T11:10:11.430Z,15.9
2023-01-23T11:16:09.618Z,19.2
2023-01-23T11:22:12.002Z,18.2
2023-01-23T11:28:01.491Z,20
2023-01-23T11:33:53.734Z,18.7
2023-01-23T11:39:46.766Z,19.4
2023-01-23T11:45:40.542Z,17.6
2023-01-23T11:51:37.078Z,17.5
2023-01-23T11:57:41.159Z,16.3
2023-01-23T12:03:34.324Z,18.2
2023-01-23T12:09:29.586Z,17.6
2023-01-23T12:15:18.601Z,15.5
2023-01-23T12:21:09.005Z,15.8
2023-01-23T12:27:01.240Z,14.7
2023-01-23T12:32:57.517Z,14.5
2023-01-23T12:38:48.575Z,13.3
2023-01-23T12:44:37.933Z,11.6
2023-01-23T12:50:26.748Z,12.3
2023-01-23T12:56:18.811Z,13.1
2023-01-23T13:02:11.431Z,11.4
2023-01-23T13:08:01.884Z,10.9
2023-01-23T13:13:51.829Z,11.7
2023-01-23T13:19:44.341Z,12.7
2023-01-23T13:25:35.725Z,11.4
2023-01-23T13:31:28.187Z,10.6
2023-01-23T13:37:18.256Z,12.2
2023-01-23T13:43:07.817Z,12.6
2023-01-23T14:23:36.019Z,14.6
2023-01-23T14:29:28.525Z,14.6
2023-01-23T14:35:19.778Z,27.2
2023-01-23T14:41:10.435Z,12.6
2023-01-23T14:47:01.202Z,17.9
2023-01-23T14:52:52.976Z,15.9
2023-01-23T14:58:43.493Z,13.8
2023-01-23T15:04:33.506Z,12.9
2023-01-23T15:10:22.029Z,13.5
2023-01-23T15:16:10.070Z,14.9
2023-01-23T15:21:58.727Z,15.3
2023-01-23T15:27:47.769Z,16.9
2023-01-23T15:33:37.129Z,17.4
2023-01-23T15:39:27.611Z,16.5
2023-01-23T15:45:16.585Z,19
2023-01-23T15:51:04.740Z,14.8
2023-01-23T15:57:12.514Z,23.5
2023-01-23T16:03:03.432Z,18.9
2023-01-23T16:09:09.776Z,31.8
2023-01-23T16:14:58.913Z,27.3
2023-01-23T16:20:53.597Z,27.2
2023-01-23T16:26:52.303Z,20
2023-01-23T16:32:47.107Z,27.5
2023-01-23T16:38:40.134Z,26.2
2023-01-23T16:44:34.550Z,31.9
2023-01-23T16:50:26.183Z,45.2
2023-01-23T16:56:15.769Z,23.3
2023-01-23T17:02:06.522Z,23.9
2023-01-23T17:07:58.632Z,19
2023-01-23T17:13:48.333Z,16
2023-01-23T17:19:39.263Z,17.6
2023-01-23T17:25:29.711Z,16.5
2023-01-23T17:31:22.809Z,16.1
2023-01-23T17:37:15.990Z,17.1
2023-01-23T17:43:06.862Z,17.1
2023-01-23T17:48:57.279Z,19.7
2023-01-23T17:54:47.062Z,24.8
2023-01-23T18:00:36.873Z,22
2023-01-23T18:06:36.343Z,16.9
2023-01-23T18:12:27.045Z,18.1
2023-01-23T18:18:15.266Z,21.5
2023-01-23T18:24:10.541Z,19.3
2023-01-23T18:30:05.592Z,19.7
2023-01-23T18:35:57.188Z,27.4
2023-01-23T18:41:49.287Z,20.6
2023-01-23T18:47:42.900Z,22.4
2023-01-23T18:53:34.810Z,20.3
2023-01-23T18:59:25.061Z,29.6
2023-01-23T19:05:16.069Z,20.5
2023-01-23T19:11:09.225Z,24.9
2023-01-23T19:17:02.122Z,25.8
2023-01-23T19:22:55.739Z,18.3
2023-01-23T19:28:46.420Z,20.7
2023-01-23T19:34:45.569Z,34.2
2023-01-23T19:40:36.742Z,24.1
2023-01-23T19:46:35.496Z,57.2
2023-01-23T19:52:27.845Z,26.1
2023-01-23T19:58:21.381Z,40.3
2023-01-23T20:04:20.925Z,40.1
2023-01-23T20:10:12.478Z,27.2
2023-01-23T20:16:06.633Z,19.7
2023-01-23T20:21:55.311Z,21.1
2023-01-23T20:27:49.301Z,35.5
2023-01-23T20:33:42.269Z,25.6
2023-01-23T20:39:35.835Z,24.3
2023-01-23T20:45:42.478Z,40.6
2023-01-23T20:51:35.830Z,30.1
2023-01-23T20:57:31.244Z,29.7
2023-01-23T21:03:23.335Z,31.3
2023-01-23T21:09:14.378Z,36.8
2023-01-23T21:15:09.323Z,37.8
2023-01-23T21:21:02.759Z,34
2023-01-23T21:26:55.182Z,34
2023-01-23T21:32:49.203Z,24.2
2023-01-23T21:38:44.020Z,32.1
2023-01-23T21:44:37.595Z,34.6
2023-01-23T21:50:28.718Z,22.3
2023-01-23T21:56:21.727Z,35.7
2023-01-23T22:02:11.955Z,22.6
2023-01-23T22:08:02.267Z,22.1
2023-01-23T22:13:54.518Z,20.6
2023-01-23T22:19:43.752Z,23.2
2023-01-23T22:25:33.616Z,25.5
2023-01-23T22:31:22.593Z,19.5
2023-01-23T22:37:14.280Z,25.6
2023-01-23T22:43:04.710Z,30.4
2023-01-23T22:48:57.312Z,19.7
2023-01-23T22:54:47.271Z,20.6
2023-01-23T23:00:36.774Z,18.3
2023-01-23T23:06:29.038Z,17.4
2023-01-23T23:12:19.635Z,19.6
2023-01-23T23:18:10.041Z,19.8
2023-01-23T23:24:03.647Z,16.1
2023-01-23T23:29:54.710Z,17
2023-01-23T23:35:44.845Z,14.4
2023-01-23T23:41:36.594Z,13.9
2023-01-23T23:47:55.551Z,15.5
2023-01-23T23:54:06.638Z,18.8
